sensor_id;sensor_type;location;lat;lon;timestamp;P1;durP1;ratioP1;P2;durP2;ratioP2
23782;SDS011;12071;50.850;4.446;2023-03-03T00:02:14;42.03;;;21.85;;
23782;SDS011;12071;50.850;4.446;2023-03-03T00:04:40;42.60;;;22.10;;
23782;SDS011;12071;50.850;4.446;2023-03-03T00:07:05;38.22;;;22.15;;
23782;SDS011;12071;50.850;4.446;2023-03-03T00:09:31;43.33;;;22.42;;
23782;SDS011;12071;50.850;4.446;2023-03-03T00:11:56;42.95;;;23.45;;
23782;SDS011;12071;50.850;4.446;2023-03-03T00:14:28;40.40;;;22.42;;
23782;SDS011;12071;50.850;4.446;2023-03-03T00:16:56;40.58;;;23.35;;
23782;SDS011;12071;50.850;4.446;2023-03-03T00:19:24;43.30;;;22.27;;
23782;SDS011;12071;50.850;4.446;2023-03-03T00:21:50;45.13;;;22.55;;
23782;SDS011;12071;50.850;4.446;2023-03-03T00:26:48;38.38;;;21.38;;
23782;SDS011;12071;50.850;4.446;2023-03-03T00:29:28;41.65;;;22.60;;
23782;SDS011;12071;50.850;4.446;2023-03-03T00:34:44;44.15;;;22.80;;
23782;SDS011;12071;50.850;4.446;2023-03-03T00:37:22;42.15;;;23.02;;
23782;SDS011;12071;50.850;4.446;2023-03-03T00:39:51;44.85;;;23.42;;
23782;SDS011;12071;50.850;4.446;2023-03-03T00:42:17;47.28;;;23.92;;
23782;SDS011;12071;50.850;4.446;2023-03-03T00:44:44;47.67;;;24.13;;
23782;SDS011;12071;50.850;4.446;2023-03-03T00:50:16;47.75;;;24.42;;
23782;SDS011;12071;50.850;4.446;2023-03-03T00:55:54;44.55;;;23.48;;
23782;SDS011;12071;50.850;4.446;2023-03-03T00:58:20;45.53;;;23.38;;
23782;SDS011;12071;50.850;4.446;2023-03-03T01:00:48;40.58;;;23.10;;
23782;SDS011;12071;50.850;4.446;2023-03-03T01:03:17;42.90;;;23.42;;
23782;SDS011;12071;50.850;4.446;2023-03-03T01:05:44;43.25;;;22.70;;
23782;SDS011;12071;50.850;4.446;2023-03-03T01:08:10;41.58;;;22.42;;
23782;SDS011;12071;50.850;4.446;2023-03-03T01:10:38;50.10;;;22.65;;
23782;SDS011;12071;50.850;4.446;2023-03-03T01:13:14;44.63;;;23.75;;
23782;SDS011;12071;50.850;4.446;2023-03-03T01:15:40;46.25;;;23.35;;
23782;SDS011;12071;50.850;4.446;2023-03-03T01:18:07;44.22;;;22.92;;
23782;SDS011;12071;50.850;4.446;2023-03-03T01:20:34;47.15;;;23.05;;
23782;SDS011;12071;50.850;4.446;2023-03-03T01:23:00;48.53;;;23.48;;
23782;SDS011;12071;50.850;4.446;2023-03-03T01:25:25;45.30;;;24.27;;
23782;SDS011;12071;50.850;4.446;2023-03-03T01:27:51;45.53;;;23.75;;
23782;SDS011;12071;50.850;4.446;2023-03-03T01:30:16;48.67;;;24.48;;
23782;SDS011;12071;50.850;4.446;2023-03-03T01:32:42;46.63;;;23.40;;
23782;SDS011;12071;50.850;4.446;2023-03-03T01:35:08;51.72;;;24.63;;
23782;SDS011;12071;50.850;4.446;2023-03-03T01:37:34;46.22;;;23.27;;
23782;SDS011;12071;50.850;4.446;2023-03-03T01:40:00;46.45;;;24.33;;
23782;SDS011;12071;50.850;4.446;2023-03-03T01:42:26;44.80;;;24.02;;
23782;SDS011;12071;50.850;4.446;2023-03-03T01:45:27;43.60;;;23.27;;
23782;SDS011;12071;50.850;4.446;2023-03-03T01:50:41;45.03;;;24.02;;
23782;SDS011;12071;50.850;4.446;2023-03-03T01:53:21;47.63;;;24.05;;
23782;SDS011;12071;50.850;4.446;2023-03-03T01:55:52;47.90;;;23.90;;
23782;SDS011;12071;50.850;4.446;2023-03-03T01:58:22;49.10;;;25.20;;
23782;SDS011;12071;50.850;4.446;2023-03-03T02:00:54;52.58;;;26.25;;
23782;SDS011;12071;50.850;4.446;2023-03-03T02:03:23;48.25;;;25.70;;
23782;SDS011;12071;50.850;4.446;2023-03-03T02:05:49;49.15;;;26.02;;
23782;SDS011;12071;50.850;4.446;2023-03-03T02:08:19;50.08;;;25.70;;
23782;SDS011;12071;50.850;4.446;2023-03-03T02:10:47;47.05;;;25.05;;
23782;SDS011;12071;50.850;4.446;2023-03-03T02:13:14;51.10;;;26.02;;
23782;SDS011;12071;50.850;4.446;2023-03-03T02:15:40;53.72;;;26.08;;
23782;SDS011;12071;50.850;4.446;2023-03-03T02:18:10;56.30;;;27.45;;
23782;SDS011;12071;50.850;4.446;2023-03-03T02:20:45;54.00;;;28.33;;
23782;SDS011;12071;50.850;4.446;2023-03-03T02:26:23;56.88;;;27.35;;
23782;SDS011;12071;50.850;4.446;2023-03-03T02:28:51;55.50;;;27.83;;
23782;SDS011;12071;50.850;4.446;2023-03-03T02:31:18;56.33;;;27.70;;
23782;SDS011;12071;50.850;4.446;2023-03-03T02:33:47;61.10;;;26.38;;
23782;SDS011;12071;50.850;4.446;2023-03-03T02:36:16;56.88;;;27.92;;
23782;SDS011;12071;50.850;4.446;2023-03-03T02:44:29;69.43;;;31.87;;
23782;SDS011;12071;50.850;4.446;2023-03-03T02:46:56;71.50;;;32.85;;
23782;SDS011;12071;50.850;4.446;2023-03-03T02:49:23;70.35;;;32.83;;
23782;SDS011;12071;50.850;4.446;2023-03-03T02:51:51;68.80;;;31.75;;
23782;SDS011;12071;50.850;4.446;2023-03-03T02:54:18;71.57;;;32.30;;
23782;SDS011;12071;50.850;4.446;2023-03-03T02:56:46;72.38;;;33.90;;
23782;SDS011;12071;50.850;4.446;2023-03-03T02:59:12;62.88;;;30.67;;
23782;SDS011;12071;50.850;4.446;2023-03-03T03:01:38;70.80;;;31.80;;
23782;SDS011;12071;50.850;4.446;2023-03-03T03:04:05;69.97;;;31.42;;
23782;SDS011;12071;50.850;4.446;2023-03-03T03:06:33;71.38;;;32.03;;
23782;SDS011;12071;50.850;4.446;2023-03-03T03:08:59;71.30;;;33.67;;
23782;SDS011;12071;50.850;4.446;2023-03-03T03:11:25;73.20;;;33.28;;
23782;SDS011;12071;50.850;4.446;2023-03-03T03:13:50;75.28;;;34.78;;
23782;SDS011;12071;50.850;4.446;2023-03-03T03:16:16;79.63;;;34.22;;
23782;SDS011;12071;50.850;4.446;2023-03-03T03:18:42;80.90;;;34.17;;
23782;SDS011;12071;50.850;4.446;2023-03-03T03:21:09;77.00;;;35.35;;
23782;SDS011;12071;50.850;4.446;2023-03-03T03:23:36;75.18;;;35.25;;
23782;SDS011;12071;50.850;4.446;2023-03-03T03:26:02;84.40;;;35.40;;
23782;SDS011;12071;50.850;4.446;2023-03-03T03:28:28;75.28;;;34.00;;
23782;SDS011;12071;50.850;4.446;2023-03-03T03:30:54;74.18;;;34.72;;
23782;SDS011;12071;50.850;4.446;2023-03-03T03:33:20;72.95;;;33.92;;
23782;SDS011;12071;50.850;4.446;2023-03-03T03:35:46;79.40;;;35.25;;
23782;SDS011;12071;50.850;4.446;2023-03-03T03:38:12;75.75;;;33.83;;
23782;SDS011;12071;50.850;4.446;2023-03-03T03:40:39;72.43;;;33.28;;
23782;SDS011;12071;50.850;4.446;2023-03-03T03:43:04;80.53;;;33.28;;
23782;SDS011;12071;50.850;4.446;2023-03-03T03:45:30;71.38;;;32.05;;
23782;SDS011;12071;50.850;4.446;2023-03-03T03:47:55;70.35;;;31.73;;
23782;SDS011;12071;50.850;4.446;2023-03-03T03:50:21;74.70;;;32.85;;
23782;SDS011;12071;50.850;4.446;2023-03-03T03:52:47;68.35;;;30.40;;
23782;SDS011;12071;50.850;4.446;2023-03-03T03:55:12;79.32;;;34.00;;
23782;SDS011;12071;50.850;4.446;2023-03-03T03:57:39;72.47;;;31.88;;
23782;SDS011;12071;50.850;4.446;2023-03-03T04:00:05;70.53;;;32.33;;
23782;SDS011;12071;50.850;4.446;2023-03-03T04:02:32;67.68;;;31.73;;
23782;SDS011;12071;50.850;4.446;2023-03-03T04:04:58;77.55;;;33.50;;
23782;SDS011;12071;50.850;4.446;2023-03-03T04:07:24;73.97;;;32.67;;
23782;SDS011;12071;50.850;4.446;2023-03-03T04:09:50;73.32;;;33.53;;
23782;SDS011;12071;50.850;4.446;2023-03-03T04:12:16;76.97;;;32.90;;
23782;SDS011;12071;50.850;4.446;2023-03-03T04:14:41;72.78;;;34.83;;
23782;SDS011;12071;50.850;4.446;2023-03-03T04:17:07;71.18;;;33.85;;
23782;SDS011;12071;50.850;4.446;2023-03-03T04:19:34;70.78;;;33.55;;
23782;SDS011;12071;50.850;4.446;2023-03-03T04:22:00;66.75;;;32.60;;
23782;SDS011;12071;50.850;4.446;2023-03-03T04:24:25;68.03;;;32.33;;
23782;SDS011;12071;50.850;4.446;2023-03-03T04:26:51;70.93;;;31.60;;
23782;SDS011;12071;50.850;4.446;2023-03-03T04:29:16;62.80;;;30.05;;
23782;SDS011;12071;50.850;4.446;2023-03-03T04:31:42;65.15;;;29.80;;
23782;SDS011;12071;50.850;4.446;2023-03-03T04:34:07;74.53;;;33.22;;
23782;SDS011;12071;50.850;4.446;2023-03-03T04:36:33;70.47;;;32.50;;
23782;SDS011;12071;50.850;4.446;2023-03-03T04:38:59;75.72;;;33.50;;
23782;SDS011;12071;50.850;4.446;2023-03-03T04:41:24;74.88;;;34.08;;
23782;SDS011;12071;50.850;4.446;2023-03-03T04:43:50;76.50;;;33.22;;
23782;SDS011;12071;50.850;4.446;2023-03-03T04:46:15;73.97;;;33.60;;
23782;SDS011;12071;50.850;4.446;2023-03-03T04:48:41;70.13;;;30.98;;
23782;SDS011;12071;50.850;4.446;2023-03-03T04:51:07;71.47;;;32.15;;
23782;SDS011;12071;50.850;4.446;2023-03-03T04:53:32;70.28;;;31.33;;
23782;SDS011;12071;50.850;4.446;2023-03-03T04:55:58;68.25;;;30.60;;
23782;SDS011;12071;50.850;4.446;2023-03-03T04:58:23;67.20;;;31.15;;
23782;SDS011;12071;50.850;4.446;2023-03-03T05:00:53;68.38;;;30.92;;
23782;SDS011;12071;50.850;4.446;2023-03-03T05:03:20;72.45;;;31.45;;
23782;SDS011;12071;50.850;4.446;2023-03-03T05:05:46;69.90;;;33.10;;
23782;SDS011;12071;50.850;4.446;2023-03-03T05:08:12;69.65;;;32.10;;
23782;SDS011;12071;50.850;4.446;2023-03-03T05:10:38;73.72;;;32.85;;
23782;SDS011;12071;50.850;4.446;2023-03-03T05:13:04;78.20;;;33.50;;
23782;SDS011;12071;50.850;4.446;2023-03-03T05:15:30;72.97;;;32.05;;
23782;SDS011;12071;50.850;4.446;2023-03-03T05:17:56;65.20;;;31.45;;
23782;SDS011;12071;50.850;4.446;2023-03-03T05:20:22;74.07;;;31.15;;
23782;SDS011;12071;50.850;4.446;2023-03-03T05:22:49;69.32;;;31.70;;
23782;SDS011;12071;50.850;4.446;2023-03-03T05:25:15;70.03;;;31.15;;
23782;SDS011;12071;50.850;4.446;2023-03-03T05:27:40;63.53;;;29.88;;
23782;SDS011;12071;50.850;4.446;2023-03-03T05:30:07;64.45;;;29.17;;
23782;SDS011;12071;50.850;4.446;2023-03-03T05:32:34;62.53;;;29.02;;
23782;SDS011;12071;50.850;4.446;2023-03-03T05:35:00;65.50;;;29.23;;
23782;SDS011;12071;50.850;4.446;2023-03-03T05:37:26;173.82;;;36.95;;
23782;SDS011;12071;50.850;4.446;2023-03-03T05:39:51;173.65;;;37.38;;
23782;SDS011;12071;50.850;4.446;2023-03-03T05:42:17;85.55;;;32.88;;
23782;SDS011;12071;50.850;4.446;2023-03-03T05:44:42;70.72;;;33.78;;
23782;SDS011;12071;50.850;4.446;2023-03-03T05:47:08;60.25;;;29.80;;
23782;SDS011;12071;50.850;4.446;2023-03-03T05:49:34;60.88;;;30.45;;
23782;SDS011;12071;50.850;4.446;2023-03-03T05:52:00;64.75;;;28.05;;
23782;SDS011;12071;50.850;4.446;2023-03-03T05:54:25;57.78;;;29.20;;
23782;SDS011;12071;50.850;4.446;2023-03-03T05:56:51;78.05;;;33.42;;
23782;SDS011;12071;50.850;4.446;2023-03-03T05:59:16;61.30;;;29.02;;
23782;SDS011;12071;50.850;4.446;2023-03-03T06:01:43;57.33;;;28.42;;
23782;SDS011;12071;50.850;4.446;2023-03-03T06:04:08;59.92;;;28.58;;
23782;SDS011;12071;50.850;4.446;2023-03-03T06:06:34;96.55;;;31.23;;
23782;SDS011;12071;50.850;4.446;2023-03-03T06:09:00;70.93;;;30.42;;
23782;SDS011;12071;50.850;4.446;2023-03-03T06:11:26;54.65;;;28.50;;
23782;SDS011;12071;50.850;4.446;2023-03-03T06:13:52;54.42;;;26.67;;
23782;SDS011;12071;50.850;4.446;2023-03-03T06:16:17;58.35;;;30.08;;
23782;SDS011;12071;50.850;4.446;2023-03-03T06:18:43;57.40;;;27.00;;
23782;SDS011;12071;50.850;4.446;2023-03-03T06:21:09;56.17;;;27.23;;
23782;SDS011;12071;50.850;4.446;2023-03-03T06:23:34;55.25;;;27.70;;
23782;SDS011;12071;50.850;4.446;2023-03-03T06:26:00;55.40;;;26.35;;
23782;SDS011;12071;50.850;4.446;2023-03-03T06:28:26;54.92;;;26.70;;
23782;SDS011;12071;50.850;4.446;2023-03-03T06:30:52;58.30;;;26.25;;
23782;SDS011;12071;50.850;4.446;2023-03-03T06:33:19;55.58;;;26.98;;
23782;SDS011;12071;50.850;4.446;2023-03-03T06:35:48;57.35;;;26.75;;
23782;SDS011;12071;50.850;4.446;2023-03-03T06:38:14;51.80;;;26.73;;
23782;SDS011;12071;50.850;4.446;2023-03-03T06:40:40;53.50;;;25.58;;
23782;SDS011;12071;50.850;4.446;2023-03-03T06:43:06;48.65;;;26.08;;
23782;SDS011;12071;50.850;4.446;2023-03-03T06:45:31;51.65;;;26.10;;
23782;SDS011;12071;50.850;4.446;2023-03-03T06:47:57;49.67;;;25.40;;
23782;SDS011;12071;50.850;4.446;2023-03-03T06:50:23;50.85;;;25.75;;
23782;SDS011;12071;50.850;4.446;2023-03-03T06:52:48;52.97;;;26.67;;
23782;SDS011;12071;50.850;4.446;2023-03-03T06:55:17;50.05;;;27.05;;
23782;SDS011;12071;50.850;4.446;2023-03-03T06:57:47;54.60;;;26.67;;
23782;SDS011;12071;50.850;4.446;2023-03-03T07:03:22;57.03;;;27.55;;
23782;SDS011;12071;50.850;4.446;2023-03-03T07:05:42;51.92;;;27.58;;
23782;SDS011;12071;50.850;4.446;2023-03-03T07:08:15;56.55;;;27.25;;
23782;SDS011;12071;50.850;4.446;2023-03-03T07:10:45;57.92;;;26.58;;
23782;SDS011;12071;50.850;4.446;2023-03-03T07:13:15;53.00;;;26.50;;
23782;SDS011;12071;50.850;4.446;2023-03-03T07:15:49;51.03;;;25.08;;
23782;SDS011;12071;50.850;4.446;2023-03-03T07:21:25;45.85;;;23.77;;
23782;SDS011;12071;50.850;4.446;2023-03-03T07:24:00;50.25;;;24.50;;
23782;SDS011;12071;50.850;4.446;2023-03-03T07:26:39;52.53;;;25.20;;
23782;SDS011;12071;50.850;4.446;2023-03-03T07:29:27;53.78;;;25.58;;
23782;SDS011;12071;50.850;4.446;2023-03-03T07:31:52;55.63;;;26.83;;
23782;SDS011;12071;50.850;4.446;2023-03-03T07:36:52;58.80;;;26.75;;
23782;SDS011;12071;50.850;4.446;2023-03-03T07:44:44;53.20;;;25.77;;
23782;SDS011;12071;50.850;4.446;2023-03-03T07:47:23;50.90;;;24.65;;
23782;SDS011;12071;50.850;4.446;2023-03-03T07:49:51;54.95;;;25.52;;
23782;SDS011;12071;50.850;4.446;2023-03-03T07:52:25;54.75;;;25.98;;
23782;SDS011;12071;50.850;4.446;2023-03-03T07:54:54;52.83;;;25.67;;
23782;SDS011;12071;50.850;4.446;2023-03-03T07:57:27;53.85;;;25.17;;
23782;SDS011;12071;50.850;4.446;2023-03-03T08:03:03;48.88;;;25.48;;
23782;SDS011;12071;50.850;4.446;2023-03-03T08:05:39;54.47;;;24.38;;
23782;SDS011;12071;50.850;4.446;2023-03-03T08:10:57;52.97;;;24.17;;
23782;SDS011;12071;50.850;4.446;2023-03-03T08:18:34;50.22;;;24.40;;
23782;SDS011;12071;50.850;4.446;2023-03-03T08:21:04;56.67;;;26.75;;
23782;SDS011;12071;50.850;4.446;2023-03-03T08:23:33;50.78;;;26.10;;
23782;SDS011;12071;50.850;4.446;2023-03-03T08:25:59;51.20;;;24.92;;
23782;SDS011;12071;50.850;4.446;2023-03-03T08:28:24;50.15;;;23.13;;
23782;SDS011;12071;50.850;4.446;2023-03-03T08:30:50;45.55;;;22.58;;
23782;SDS011;12071;50.850;4.446;2023-03-03T08:33:16;49.75;;;21.45;;
23782;SDS011;12071;50.850;4.446;2023-03-03T08:35:43;44.78;;;22.38;;
23782;SDS011;12071;50.850;4.446;2023-03-03T08:38:09;45.78;;;22.85;;
23782;SDS011;12071;50.850;4.446;2023-03-03T08:40:36;43.15;;;22.13;;
23782;SDS011;12071;50.850;4.446;2023-03-03T08:43:02;44.13;;;21.92;;
23782;SDS011;12071;50.850;4.446;2023-03-03T08:45:28;42.75;;;21.60;;
23782;SDS011;12071;50.850;4.446;2023-03-03T08:47:54;50.28;;;21.25;;
23782;SDS011;12071;50.850;4.446;2023-03-03T08:50:20;50.88;;;23.50;;
23782;SDS011;12071;50.850;4.446;2023-03-03T08:52:46;50.90;;;23.02;;
23782;SDS011;12071;50.850;4.446;2023-03-03T08:55:12;45.35;;;22.45;;
23782;SDS011;12071;50.850;4.446;2023-03-03T08:57:37;43.47;;;21.65;;
23782;SDS011;12071;50.850;4.446;2023-03-03T09:00:04;36.65;;;19.88;;
23782;SDS011;12071;50.850;4.446;2023-03-03T09:02:32;40.85;;;20.55;;
23782;SDS011;12071;50.850;4.446;2023-03-03T09:04:57;36.03;;;19.33;;
23782;SDS011;12071;50.850;4.446;2023-03-03T09:07:23;34.95;;;19.20;;
23782;SDS011;12071;50.850;4.446;2023-03-03T09:09:48;37.83;;;18.67;;
23782;SDS011;12071;50.850;4.446;2023-03-03T09:12:16;37.20;;;18.63;;
23782;SDS011;12071;50.850;4.446;2023-03-03T09:15:45;41.88;;;18.60;;
23782;SDS011;12071;50.850;4.446;2023-03-03T09:17:53;39.50;;;19.23;;
23782;SDS011;12071;50.850;4.446;2023-03-03T09:20:35;43.35;;;19.35;;
23782;SDS011;12071;50.850;4.446;2023-03-03T09:23:21;36.88;;;18.98;;
23782;SDS011;12071;50.850;4.446;2023-03-03T09:26:05;39.42;;;17.48;;
23782;SDS011;12071;50.850;4.446;2023-03-03T09:28:40;33.65;;;17.17;;
23782;SDS011;12071;50.850;4.446;2023-03-03T09:31:16;37.78;;;18.20;;
23782;SDS011;12071;50.850;4.446;2023-03-03T09:33:49;46.40;;;19.80;;
23782;SDS011;12071;50.850;4.446;2023-03-03T09:36:29;39.97;;;18.25;;
23782;SDS011;12071;50.850;4.446;2023-03-03T09:39:00;39.15;;;18.20;;
23782;SDS011;12071;50.850;4.446;2023-03-03T09:47:19;34.97;;;17.95;;
23782;SDS011;12071;50.850;4.446;2023-03-03T10:00:56;39.25;;;17.67;;
23782;SDS011;12071;50.850;4.446;2023-03-03T10:06:00;38.72;;;19.10;;
23782;SDS011;12071;50.850;4.446;2023-03-03T10:11:09;33.92;;;17.15;;
23782;SDS011;12071;50.850;4.446;2023-03-03T10:21:49;39.05;;;17.48;;
23782;SDS011;12071;50.850;4.446;2023-03-03T10:24:39;38.92;;;19.17;;
23782;SDS011;12071;50.850;4.446;2023-03-03T10:44:02;38.22;;;19.70;;
23782;SDS011;12071;50.850;4.446;2023-03-03T10:47:04;38.00;;;17.52;;
23782;SDS011;12071;50.850;4.446;2023-03-03T10:50:23;39.72;;;18.17;;
23782;SDS011;12071;50.850;4.446;2023-03-03T10:53:26;41.25;;;20.08;;
23782;SDS011;12071;50.850;4.446;2023-03-03T11:01:29;36.17;;;18.20;;
23782;SDS011;12071;50.850;4.446;2023-03-03T11:04:20;34.88;;;16.95;;
23782;SDS011;12071;50.850;4.446;2023-03-03T11:09:32;35.10;;;16.98;;
23782;SDS011;12071;50.850;4.446;2023-03-03T11:12:08;33.58;;;17.17;;
23782;SDS011;12071;50.850;4.446;2023-03-03T11:15:28;34.92;;;16.13;;
23782;SDS011;12071;50.850;4.446;2023-03-03T11:23:15;31.70;;;15.77;;
23782;SDS011;12071;50.850;4.446;2023-03-03T11:28:52;29.90;;;15.55;;
23782;SDS011;12071;50.850;4.446;2023-03-03T11:31:32;30.77;;;15.70;;
23782;SDS011;12071;50.850;4.446;2023-03-03T11:43:26;32.53;;;15.77;;
23782;SDS011;12071;50.850;4.446;2023-03-03T11:45:56;30.45;;;14.93;;
23782;SDS011;12071;50.850;4.446;2023-03-03T11:51:04;31.20;;;15.73;;
23782;SDS011;12071;50.850;4.446;2023-03-03T11:53:39;31.38;;;15.32;;
23782;SDS011;12071;50.850;4.446;2023-03-03T11:56:26;30.15;;;15.55;;
23782;SDS011;12071;50.850;4.446;2023-03-03T12:01:29;33.05;;;15.95;;
23782;SDS011;12071;50.850;4.446;2023-03-03T12:04:02;33.25;;;16.95;;
23782;SDS011;12071;50.850;4.446;2023-03-03T12:14:50;32.80;;;16.95;;
23782;SDS011;12071;50.850;4.446;2023-03-03T12:24:02;32.88;;;16.02;;
23782;SDS011;12071;50.850;4.446;2023-03-03T12:34:26;31.20;;;15.23;;
23782;SDS011;12071;50.850;4.446;2023-03-03T12:37:14;29.63;;;15.30;;
23782;SDS011;12071;50.850;4.446;2023-03-03T12:40:08;29.20;;;14.70;;
23782;SDS011;12071;50.850;4.446;2023-03-03T12:51:03;27.67;;;14.60;;
23782;SDS011;12071;50.850;4.446;2023-03-03T13:04:46;32.85;;;16.10;;
23782;SDS011;12071;50.850;4.446;2023-03-03T13:07:22;30.88;;;15.77;;
23782;SDS011;12071;50.850;4.446;2023-03-03T13:10:04;34.70;;;15.55;;
23782;SDS011;12071;50.850;4.446;2023-03-03T13:12:56;26.38;;;13.70;;
23782;SDS011;12071;50.850;4.446;2023-03-03T13:19:00;25.45;;;13.45;;
23782;SDS011;12071;50.850;4.446;2023-03-03T13:21:35;26.65;;;13.80;;
23782;SDS011;12071;50.850;4.446;2023-03-03T13:24:03;25.90;;;13.55;;
23782;SDS011;12071;50.850;4.446;2023-03-03T13:26:34;22.92;;;12.38;;
23782;SDS011;12071;50.850;4.446;2023-03-03T13:31:38;25.85;;;13.00;;
23782;SDS011;12071;50.850;4.446;2023-03-03T13:34:07;23.27;;;12.43;;
23782;SDS011;12071;50.850;4.446;2023-03-03T13:36:52;25.83;;;13.15;;
23782;SDS011;12071;50.850;4.446;2023-03-03T13:39:26;25.02;;;14.10;;
23782;SDS011;12071;50.850;4.446;2023-03-03T13:41:56;25.42;;;13.43;;
23782;SDS011;12071;50.850;4.446;2023-03-03T13:44:29;24.90;;;13.20;;
23782;SDS011;12071;50.850;4.446;2023-03-03T13:49:59;23.33;;;12.30;;
23782;SDS011;12071;50.850;4.446;2023-03-03T13:52:46;24.00;;;13.40;;
23782;SDS011;12071;50.850;4.446;2023-03-03T14:00:41;25.55;;;12.82;;
23782;SDS011;12071;50.850;4.446;2023-03-03T14:03:31;23.98;;;11.75;;
23782;SDS011;12071;50.850;4.446;2023-03-03T14:06:14;28.13;;;12.52;;
23782;SDS011;12071;50.850;4.446;2023-03-03T14:14:27;24.80;;;12.88;;
23782;SDS011;12071;50.850;4.446;2023-03-03T14:16:57;21.80;;;12.98;;
23782;SDS011;12071;50.850;4.446;2023-03-03T14:19:27;30.80;;;14.88;;
23782;SDS011;12071;50.850;4.446;2023-03-03T14:24:43;25.17;;;13.88;;
23782;SDS011;12071;50.850;4.446;2023-03-03T14:27:37;22.67;;;12.90;;
23782;SDS011;12071;50.850;4.446;2023-03-03T14:35:36;20.27;;;12.93;;
23782;SDS011;12071;50.850;4.446;2023-03-03T14:40:36;19.05;;;12.38;;
23782;SDS011;12071;50.850;4.446;2023-03-03T14:45:58;21.02;;;12.13;;
23782;SDS011;12071;50.850;4.446;2023-03-03T14:49:42;17.48;;;10.75;;
23782;SDS011;12071;50.850;4.446;2023-03-03T14:52:01;17.58;;;10.23;;
23782;SDS011;12071;50.850;4.446;2023-03-03T14:54:36;17.13;;;10.55;;
23782;SDS011;12071;50.850;4.446;2023-03-03T14:57:18;17.63;;;10.68;;
23782;SDS011;12071;50.850;4.446;2023-03-03T15:02:42;18.52;;;9.98;;
23782;SDS011;12071;50.850;4.446;2023-03-03T15:05:15;16.50;;;9.90;;
23782;SDS011;12071;50.850;4.446;2023-03-03T15:07:45;16.02;;;9.52;;
23782;SDS011;12071;50.850;4.446;2023-03-03T15:10:12;18.10;;;9.70;;
23782;SDS011;12071;50.850;4.446;2023-03-03T15:13:23;16.40;;;9.93;;
23782;SDS011;12071;50.850;4.446;2023-03-03T15:16:04;14.73;;;9.05;;
23782;SDS011;12071;50.850;4.446;2023-03-03T15:21:25;15.68;;;9.98;;
23782;SDS011;12071;50.850;4.446;2023-03-03T15:42:12;13.60;;;9.20;;
23782;SDS011;12071;50.850;4.446;2023-03-03T15:44:47;15.93;;;8.88;;
23782;SDS011;12071;50.850;4.446;2023-03-03T15:47:26;12.40;;;8.40;;
23782;SDS011;12071;50.850;4.446;2023-03-03T15:50:27;15.35;;;8.80;;
23782;SDS011;12071;50.850;4.446;2023-03-03T15:58:50;12.27;;;8.65;;
23782;SDS011;12071;50.850;4.446;2023-03-03T16:01:41;10.95;;;8.27;;
23782;SDS011;12071;50.850;4.446;2023-03-03T16:04:17;12.80;;;8.43;;
23782;SDS011;12071;50.850;4.446;2023-03-03T16:06:48;13.10;;;7.53;;
23782;SDS011;12071;50.850;4.446;2023-03-03T16:12:39;11.07;;;7.35;;
23782;SDS011;12071;50.850;4.446;2023-03-03T16:20:43;9.88;;;6.90;;
23782;SDS011;12071;50.850;4.446;2023-03-03T16:23:38;12.20;;;6.70;;
23782;SDS011;12071;50.850;4.446;2023-03-03T16:26:34;13.00;;;7.13;;
23782;SDS011;12071;50.850;4.446;2023-03-03T16:34:20;14.27;;;6.85;;
23782;SDS011;12071;50.850;4.446;2023-03-03T16:39:49;11.35;;;6.80;;
23782;SDS011;12071;50.850;4.446;2023-03-03T16:42:16;11.35;;;6.35;;
23782;SDS011;12071;50.850;4.446;2023-03-03T17:03:58;12.98;;;6.97;;
23782;SDS011;12071;50.850;4.446;2023-03-03T17:08:57;13.40;;;7.18;;
23782;SDS011;12071;50.850;4.446;2023-03-03T17:14:49;12.25;;;7.15;;
23782;SDS011;12071;50.850;4.446;2023-03-03T17:20:11;13.45;;;7.40;;
23782;SDS011;12071;50.850;4.446;2023-03-03T17:22:46;10.98;;;6.95;;
23782;SDS011;12071;50.850;4.446;2023-03-03T17:25:23;13.10;;;7.75;;
23782;SDS011;12071;50.850;4.446;2023-03-03T17:28:01;15.20;;;8.02;;
23782;SDS011;12071;50.850;4.446;2023-03-03T17:34:18;13.93;;;8.33;;
23782;SDS011;12071;50.850;4.446;2023-03-03T17:46:51;13.35;;;8.40;;
23782;SDS011;12071;50.850;4.446;2023-03-03T17:54:59;14.40;;;7.78;;
23782;SDS011;12071;50.850;4.446;2023-03-03T18:00:24;15.95;;;9.85;;
23782;SDS011;12071;50.850;4.446;2023-03-03T18:06:12;11.18;;;8.38;;
23782;SDS011;12071;50.850;4.446;2023-03-03T18:09:02;11.98;;;8.10;;
23782;SDS011;12071;50.850;4.446;2023-03-03T18:22:33;14.32;;;8.80;;
23782;SDS011;12071;50.850;4.446;2023-03-03T18:27:37;11.50;;;7.82;;
23782;SDS011;12071;50.850;4.446;2023-03-03T18:37:48;14.15;;;8.88;;
23782;SDS011;12071;50.850;4.446;2023-03-03T18:40:17;15.15;;;9.68;;
23782;SDS011;12071;50.850;4.446;2023-03-03T18:42:53;19.95;;;8.77;;
23782;SDS011;12071;50.850;4.446;2023-03-03T18:55:57;13.98;;;9.35;;
23782;SDS011;12071;50.850;4.446;2023-03-03T19:03:36;15.55;;;8.73;;
23782;SDS011;12071;50.850;4.446;2023-03-03T19:06:11;18.38;;;8.68;;
23782;SDS011;12071;50.850;4.446;2023-03-03T19:09:19;19.75;;;9.18;;
23782;SDS011;12071;50.850;4.446;2023-03-03T19:12:14;18.25;;;10.55;;
23782;SDS011;12071;50.850;4.446;2023-03-03T19:14:45;20.63;;;14.55;;
23782;SDS011;12071;50.850;4.446;2023-03-03T19:23:20;12.45;;;8.48;;
23782;SDS011;12071;50.850;4.446;2023-03-03T19:25:30;14.88;;;8.57;;
23782;SDS011;12071;50.850;4.446;2023-03-03T19:28:02;19.98;;;11.27;;
23782;SDS011;12071;50.850;4.446;2023-03-03T19:44:20;13.55;;;8.32;;
23782;SDS011;12071;50.850;4.446;2023-03-03T19:52:43;17.50;;;11.63;;
23782;SDS011;12071;50.850;4.446;2023-03-03T19:55:31;13.40;;;8.73;;
23782;SDS011;12071;50.850;4.446;2023-03-03T20:20:11;9.90;;;5.55;;
23782;SDS011;12071;50.850;4.446;2023-03-03T20:23:00;11.82;;;7.72;;
23782;SDS011;12071;50.850;4.446;2023-03-03T20:31:34;9.27;;;6.28;;
23782;SDS011;12071;50.850;4.446;2023-03-03T20:37:04;10.70;;;7.75;;
23782;SDS011;12071;50.850;4.446;2023-03-03T20:39:49;8.82;;;6.22;;
23782;SDS011;12071;50.850;4.446;2023-03-03T20:56:10;9.93;;;8.23;;
23782;SDS011;12071;50.850;4.446;2023-03-03T21:04:15;10.70;;;8.60;;
23782;SDS011;12071;50.850;4.446;2023-03-03T21:06:43;12.07;;;8.35;;
23782;SDS011;12071;50.850;4.446;2023-03-03T21:09:20;11.15;;;8.48;;
23782;SDS011;12071;50.850;4.446;2023-03-03T21:11:46;11.25;;;8.45;;
23782;SDS011;12071;50.850;4.446;2023-03-03T21:14:19;10.90;;;9.80;;
23782;SDS011;12071;50.850;4.446;2023-03-03T21:16:45;11.27;;;10.27;;
23782;SDS011;12071;50.850;4.446;2023-03-03T21:19:12;10.93;;;9.82;;
23782;SDS011;12071;50.850;4.446;2023-03-03T21:21:50;12.77;;;10.15;;
23782;SDS011;12071;50.850;4.446;2023-03-03T21:24:16;11.52;;;10.20;;
23782;SDS011;12071;50.850;4.446;2023-03-03T21:26:55;13.90;;;10.50;;
23782;SDS011;12071;50.850;4.446;2023-03-03T21:29:23;10.98;;;9.80;;
23782;SDS011;12071;50.850;4.446;2023-03-03T21:31:50;12.50;;;10.57;;
23782;SDS011;12071;50.850;4.446;2023-03-03T21:36:54;13.13;;;10.15;;
23782;SDS011;12071;50.850;4.446;2023-03-03T21:41:56;13.15;;;10.10;;
23782;SDS011;12071;50.850;4.446;2023-03-03T21:47:03;13.23;;;11.25;;
23782;SDS011;12071;50.850;4.446;2023-03-03T21:49:30;12.95;;;11.27;;
23782;SDS011;12071;50.850;4.446;2023-03-03T21:51:56;14.73;;;12.07;;